Terminal Aerodrome Forecast
Issued by NWS

Home | Current Version | Previous Version | Text Only | Print | Product List | Glossary On
Versions: 1 2 3 4 5 6 7 8 9 10 11 12 13 14 15 16 17 18 19 20 21 22 23 24
144
FTUS41 KILN 051736
TAFLCK
TAF
KLCK 051736Z 0518/0618 20003KT P6SM OVC021
     FM052000 VRB03KT P6SM SCT021 BKN250
     FM060000 07004KT P6SM BKN250
     FM060600 08006KT P6SM SCT025 BKN080
     FM061400 09009KT 4SM -RA OVC008=

USA.gov is the U.S. government's official web portal to all federal, state and local government web resources and services.